createdAt,value
2018-06-25T00:00:55.194Z,14.40
2018-06-25T00:03:23.903Z,12.80
2018-06-25T00:05:52.735Z,14.40
2018-06-25T00:08:21.596Z,14.40
2018-06-25T00:10:51.369Z,14.40
2018-06-25T00:13:20.108Z,14.40
2018-06-25T00:15:48.831Z,14.40
2018-06-25T00:18:17.623Z,14.40
2018-06-25T00:20:46.349Z,14.40
2018-06-25T00:23:15.134Z,14.30
2018-06-25T00:25:44.035Z,14.20
2018-06-25T00:28:12.959Z,14.20
2018-06-25T00:30:41.673Z,14.20
2018-06-25T00:33:10.394Z,14.20
2018-06-25T00:35:39.067Z,14.20
2018-06-25T00:38:07.802Z,14.10
2018-06-25T00:40:37.123Z,14.20
2018-06-25T00:43:05.950Z,14.30
2018-06-25T00:45:35.008Z,14.30
2018-06-25T00:48:03.822Z,14.30
2018-06-25T00:50:32.722Z,14.30
2018-06-25T00:53:01.440Z,14.30
2018-06-25T00:55:30.189Z,14.30
2018-06-25T00:57:58.823Z,13.90
2018-06-25T01:00:27.544Z,13.50
2018-06-25T01:07:56.924Z,12.40
2018-06-25T01:10:26.239Z,13.90
2018-06-25T01:12:55.056Z,14.60
2018-06-25T01:15:23.802Z,14.00
2018-06-25T01:20:21.082Z,14.00
2018-06-25T01:22:49.942Z,12.40
2018-06-25T01:27:47.062Z,14.00
2018-06-25T01:30:15.707Z,13.90
2018-06-25T01:32:44.470Z,13.90
2018-06-25T01:35:13.222Z,13.60
2018-06-25T01:37:42.206Z,13.80
2018-06-25T01:40:11.056Z,13.80
2018-06-25T01:42:39.907Z,13.90
2018-06-25T01:45:08.691Z,13.90
2018-06-25T01:47:37.504Z,13.80
2018-06-25T01:52:34.727Z,13.80
2018-06-25T01:55:03.517Z,13.70
2018-06-25T01:57:32.344Z,13.80
2018-06-25T02:00:01.075Z,13.70
2018-06-25T02:02:30.049Z,12.50
2018-06-25T02:07:27.327Z,13.70
2018-06-25T02:09:56.337Z,13.70
2018-06-25T02:14:53.691Z,13.80
2018-06-25T02:17:22.726Z,13.80
2018-06-25T02:19:51.965Z,13.80
2018-06-25T02:22:20.946Z,13.70
2018-06-25T02:24:49.740Z,13.70
2018-06-25T02:27:18.571Z,13.70
2018-06-25T02:29:47.403Z,13.70
2018-06-25T02:32:16.172Z,13.70
2018-06-25T02:34:44.843Z,13.70
2018-06-25T02:37:13.664Z,13.70
2018-06-25T02:39:42.441Z,13.70
2018-06-25T02:42:11.333Z,13.70
2018-06-25T02:44:40.174Z,13.70
2018-06-25T02:47:08.970Z,13.70
2018-06-25T02:49:37.699Z,12.30
2018-06-25T02:52:06.555Z,12.60
2018-06-25T02:54:35.359Z,13.70
2018-06-25T02:57:04.027Z,13.70
2018-06-25T02:59:33.479Z,13.70
2018-06-25T03:02:02.345Z,14.80
2018-06-25T03:04:31.153Z,13.70
2018-06-25T03:06:59.895Z,13.60
2018-06-25T03:09:28.667Z,13.70
2018-06-25T03:11:57.443Z,13.70
2018-06-25T03:14:26.242Z,13.80
2018-06-25T03:16:55.947Z,15.90
2018-06-25T03:19:24.650Z,14.40
2018-06-25T03:21:53.380Z,16.20
2018-06-25T03:24:22.122Z,13.80
2018-06-25T03:26:50.915Z,13.80
2018-06-25T03:29:19.787Z,13.70
2018-06-25T03:31:48.564Z,13.70
2018-06-25T03:34:17.443Z,13.70
2018-06-25T03:36:46.385Z,13.80
2018-06-25T03:39:15.313Z,13.80
2018-06-25T03:41:43.971Z,13.70
2018-06-25T03:44:12.641Z,13.70
2018-06-25T03:46:41.296Z,13.80
2018-06-25T03:49:10.192Z,13.80
2018-06-25T03:51:38.852Z,13.80
2018-06-25T03:54:07.541Z,13.80
2018-06-25T03:56:36.295Z,13.80
2018-06-25T03:59:05.012Z,13.90
2018-06-25T04:01:34.228Z,13.90
2018-06-25T04:04:03.625Z,13.80
2018-06-25T04:06:32.231Z,13.80
2018-06-25T04:09:00.980Z,13.10
2018-06-25T04:11:29.816Z,14.00
2018-06-25T04:13:59.359Z,14.00
2018-06-25T04:16:28.163Z,14.10
2018-06-25T04:19:02.447Z,14.10
2018-06-25T04:21:31.170Z,14.20
2018-06-25T04:24:00.425Z,14.20
2018-06-25T04:26:29.230Z,14.20
2018-06-25T04:28:58.132Z,14.30
2018-06-25T04:31:27.289Z,14.40
2018-06-25T04:33:56.138Z,14.40
2018-06-25T04:36:24.823Z,14.50
2018-06-25T04:38:53.522Z,14.40
2018-06-25T04:41:22.308Z,14.30
2018-06-25T04:43:51.030Z,14.30
2018-06-25T04:46:19.715Z,14.20
2018-06-25T04:48:48.500Z,14.20
2018-06-25T04:51:17.343Z,14.30
2018-06-25T04:53:46.054Z,14.30
2018-06-25T04:56:14.722Z,14.40
2018-06-25T04:58:43.524Z,14.30
2018-06-25T05:01:12.432Z,14.00
2018-06-25T05:03:41.440Z,14.30
2018-06-25T05:06:10.306Z,14.30
2018-06-25T05:08:39.124Z,14.40
2018-06-25T05:11:07.935Z,14.50
2018-06-25T05:13:36.647Z,14.50
2018-06-25T05:22:49.242Z,14.60
2018-06-25T05:25:18.038Z,14.80
2018-06-25T05:27:47.448Z,14.80
2018-06-25T05:30:16.339Z,14.90
2018-06-25T05:32:46.108Z,14.90
2018-06-25T05:35:14.945Z,15.00
2018-06-25T05:37:44.206Z,15.00
2018-06-25T05:40:13.784Z,15.00
2018-06-25T05:42:42.775Z,15.00
2018-06-25T05:45:11.709Z,14.90
2018-06-25T05:47:40.721Z,15.00
2018-06-25T05:50:09.571Z,15.00
2018-06-25T05:52:39.339Z,14.90
2018-06-25T05:55:08.270Z,14.80
2018-06-25T05:57:37.360Z,14.90
2018-06-25T06:00:06.638Z,14.90
2018-06-25T06:02:35.444Z,14.90
2018-06-25T06:06:50.169Z,15.00
2018-06-25T06:09:19.055Z,15.00
2018-06-25T06:11:47.715Z,15.10
2018-06-25T06:14:16.522Z,15.10
2018-06-25T06:16:45.472Z,15.20
2018-06-25T06:19:14.411Z,15.30
2018-06-25T06:21:43.294Z,15.30
2018-06-25T06:24:12.038Z,15.20
2018-06-25T06:26:40.903Z,15.20
2018-06-25T06:29:09.783Z,15.30
2018-06-25T06:31:38.693Z,15.20
2018-06-25T06:34:07.598Z,15.30
2018-06-25T06:36:36.736Z,15.40
2018-06-25T06:39:10.860Z,15.60
2018-06-25T06:41:42.402Z,15.60
2018-06-25T06:44:11.514Z,15.60
2018-06-25T06:46:40.302Z,15.60
2018-06-25T06:49:09.136Z,15.50
2018-06-25T06:51:37.926Z,15.40
2018-06-25T06:54:06.778Z,15.40
2018-06-25T06:56:35.425Z,15.30
2018-06-25T06:59:04.391Z,15.40
2018-06-25T07:01:33.527Z,14.40
2018-06-25T07:04:02.312Z,15.40
2018-06-25T07:06:31.097Z,14.50
2018-06-25T07:08:59.848Z,15.40
2018-06-25T07:11:28.784Z,13.80
2018-06-25T07:13:57.475Z,15.70
2018-06-25T07:16:28.554Z,15.80
2018-06-25T07:18:58.225Z,15.90
2018-06-25T07:21:27.494Z,16.00
2018-06-25T07:23:56.760Z,16.10
2018-06-25T07:26:26.283Z,16.10
2018-06-25T07:28:56.059Z,16.20
2018-06-25T07:31:25.362Z,16.80
2018-06-25T07:33:54.294Z,16.30
2018-06-25T07:36:23.195Z,16.40
2018-06-25T07:38:52.036Z,16.40
2018-06-25T07:41:20.979Z,16.30
2018-06-25T07:43:49.803Z,16.20
2018-06-25T07:46:18.536Z,16.20
2018-06-25T07:48:47.346Z,16.20
2018-06-25T07:51:16.180Z,16.20
2018-06-25T07:53:45.135Z,16.10
2018-06-25T07:56:14.071Z,16.10
2018-06-25T07:58:43.405Z,16.20
2018-06-25T08:01:12.822Z,16.40
2018-06-25T08:03:41.720Z,16.40
2018-06-25T08:06:10.534Z,16.40
2018-06-25T08:08:39.486Z,16.40
2018-06-25T08:11:08.554Z,16.40
2018-06-25T08:13:37.447Z,15.70
2018-06-25T08:16:06.650Z,16.70
2018-06-25T08:18:35.522Z,16.80
2018-06-25T08:21:04.318Z,17.00
2018-06-25T08:23:34.649Z,17.00
2018-06-25T08:26:03.760Z,17.30
2018-06-25T08:28:32.592Z,17.40
2018-06-25T08:31:01.588Z,17.50
2018-06-25T08:33:30.523Z,17.50
2018-06-25T08:35:59.251Z,17.60
2018-06-25T08:38:28.484Z,17.80
2018-06-25T08:40:57.560Z,17.50
2018-06-25T08:43:26.291Z,17.50
2018-06-25T08:45:55.272Z,17.50
2018-06-25T08:48:24.415Z,17.50
2018-06-25T08:50:54.146Z,19.50
2018-06-25T08:53:22.924Z,17.90
2018-06-25T08:55:51.927Z,18.10
2018-06-25T08:58:21.024Z,18.10
2018-06-25T09:00:50.140Z,17.90
2018-06-25T09:03:19.241Z,17.80
2018-06-25T09:05:48.077Z,17.60
2018-06-25T09:08:18.402Z,17.40
2018-06-25T09:10:47.292Z,17.50
2018-06-25T09:13:17.250Z,17.50
2018-06-25T09:15:46.571Z,17.50
2018-06-25T09:18:15.555Z,17.40
2018-06-25T09:20:44.494Z,17.40
2018-06-25T09:23:13.371Z,17.40
2018-06-25T09:25:42.809Z,17.30
2018-06-25T09:28:11.787Z,17.20
2018-06-25T09:30:40.831Z,17.10
2018-06-25T09:33:09.654Z,17.10
2018-06-25T09:35:38.573Z,17.10
2018-06-25T09:38:07.573Z,17.20
2018-06-25T09:40:36.527Z,17.20
2018-06-25T09:43:05.289Z,17.20
2018-06-25T09:45:34.159Z,17.20
2018-06-25T09:48:03.063Z,17.10
2018-06-25T09:50:31.863Z,17.10
2018-06-25T09:53:00.709Z,17.10
2018-06-25T09:55:32.537Z,17.00
2018-06-25T09:58:11.397Z,17.10
2018-06-25T10:00:50.596Z,17.20
2018-06-25T10:03:19.390Z,17.20
2018-06-25T10:05:48.399Z,17.10
2018-06-25T10:08:17.296Z,16.90
2018-06-25T10:10:46.103Z,16.90
2018-06-25T10:13:15.153Z,16.90
2018-06-25T10:15:43.990Z,17.00
2018-06-25T10:18:12.819Z,17.20
2018-06-25T10:20:41.662Z,17.40
2018-06-25T10:23:10.419Z,17.50
2018-06-25T10:25:39.188Z,17.50
2018-06-25T10:28:08.670Z,17.60
2018-06-25T10:30:37.551Z,17.70
2018-06-25T10:33:06.462Z,17.80
2018-06-25T10:35:35.474Z,18.00
2018-06-25T10:38:04.438Z,18.00
2018-06-25T10:40:33.229Z,18.20
2018-06-25T10:43:01.988Z,17.10
2018-06-25T10:45:30.697Z,18.50
2018-06-25T10:47:59.480Z,18.60
2018-06-25T10:50:28.508Z,18.70
2018-06-25T10:52:57.330Z,18.80
2018-06-25T10:55:26.168Z,19.20
2018-06-25T10:57:55.195Z,19.20
2018-06-25T11:00:24.566Z,19.00
2018-06-25T11:02:53.947Z,18.90
2018-06-25T11:05:27.248Z,17.10
2018-06-25T11:07:56.668Z,18.20
2018-06-25T11:10:26.483Z,18.00
2018-06-25T11:12:55.393Z,18.20
2018-06-25T11:15:24.095Z,18.20
2018-06-25T11:17:52.792Z,18.20
2018-06-25T11:20:21.847Z,18.20
2018-06-25T11:22:51.204Z,18.20
2018-06-25T11:25:20.203Z,18.40
2018-06-25T11:27:49.082Z,17.40
2018-06-25T11:30:17.932Z,18.40
2018-06-25T11:32:46.725Z,18.40
2018-06-25T11:35:15.662Z,18.00
2018-06-25T11:37:44.388Z,18.80
2018-06-25T11:40:13.166Z,18.80
2018-06-25T11:42:42.031Z,18.70
2018-06-25T11:45:10.881Z,18.60
2018-06-25T11:47:39.713Z,18.70
2018-06-25T11:50:08.471Z,18.60
2018-06-25T11:52:37.208Z,18.60
2018-06-25T11:55:06.090Z,18.50
2018-06-25T11:57:34.888Z,18.60
2018-06-25T12:00:03.955Z,17.40
2018-06-25T12:02:32.886Z,18.50
2018-06-25T12:05:01.847Z,18.60
2018-06-25T12:07:30.787Z,18.60
2018-06-25T12:09:59.694Z,18.70
2018-06-25T12:12:29.089Z,18.70
2018-06-25T12:14:57.930Z,18.70
2018-06-25T12:17:26.872Z,18.80
2018-06-25T12:19:55.876Z,18.80
2018-06-25T12:22:25.289Z,18.80
2018-06-25T12:24:54.891Z,18.90
2018-06-25T12:27:24.639Z,19.00
2018-06-25T12:29:53.714Z,19.20
2018-06-25T12:32:22.656Z,19.40
2018-06-25T12:34:51.672Z,19.80
2018-06-25T12:37:20.572Z,19.80
2018-06-25T12:39:49.459Z,19.70
2018-06-25T12:42:18.109Z,19.70
2018-06-25T12:44:46.927Z,19.70
2018-06-25T12:47:15.763Z,19.70
2018-06-25T12:49:44.611Z,19.80
2018-06-25T12:52:13.498Z,19.90
2018-06-25T12:54:42.484Z,20.10
2018-06-25T12:57:11.365Z,20.40
2018-06-25T12:59:40.257Z,20.10
2018-06-25T13:02:09.083Z,20.90
2018-06-25T13:04:52.998Z,21.50
2018-06-25T13:07:22.018Z,21.90
2018-06-25T13:09:50.846Z,22.20
2018-06-25T13:12:19.680Z,22.90
2018-06-25T13:14:48.499Z,23.60
2018-06-25T13:17:17.247Z,24.00
2018-06-25T13:19:47.643Z,23.70
2018-06-25T13:22:20.463Z,22.30
2018-06-25T13:24:50.887Z,21.90
2018-06-25T13:27:19.688Z,21.40
2018-06-25T13:29:49.208Z,21.40
2018-06-25T13:32:17.906Z,21.20
2018-06-25T13:34:46.796Z,21.00
2018-06-25T13:37:15.770Z,20.70
2018-06-25T13:39:44.887Z,20.60
2018-06-25T13:42:13.709Z,20.40
2018-06-25T13:44:44.984Z,20.40
2018-06-25T13:47:13.741Z,20.10
2018-06-25T13:49:42.531Z,21.30
2018-06-25T13:52:12.072Z,20.00
2018-06-25T13:54:41.650Z,19.80
2018-06-25T13:57:10.605Z,18.50
2018-06-25T13:59:39.576Z,19.70
2018-06-25T14:02:08.571Z,19.60
2018-06-25T14:04:37.673Z,19.50
2018-06-25T14:07:06.862Z,19.40
2018-06-25T14:09:38.285Z,19.40
2018-06-25T14:12:20.104Z,19.40
2018-06-25T14:14:56.108Z,19.50
2018-06-25T14:17:41.158Z,19.40
2018-06-25T14:20:14.433Z,19.40
2018-06-25T14:22:43.390Z,19.40
2018-06-25T14:25:12.465Z,19.40
2018-06-25T14:27:46.316Z,19.30
2018-06-25T14:30:20.335Z,19.20
2018-06-25T14:32:51.076Z,19.30
2018-06-25T14:35:19.774Z,19.20
2018-06-25T14:37:48.643Z,19.20
2018-06-25T14:40:19.198Z,19.20
2018-06-25T14:42:49.595Z,19.10
2018-06-25T14:45:21.796Z,19.20
2018-06-25T14:47:51.676Z,19.10
2018-06-25T14:50:23.975Z,18.90
2018-06-25T14:52:57.393Z,18.80
2018-06-25T14:55:27.820Z,18.90
2018-06-25T14:58:04.741Z,19.00
2018-06-25T15:00:38.248Z,19.00
2018-06-25T15:03:11.153Z,19.00
2018-06-25T15:08:21.031Z,19.20
2018-06-25T15:10:51.068Z,19.30
2018-06-25T15:13:20.452Z,19.60
2018-06-25T15:15:51.532Z,19.70
2018-06-25T15:18:20.844Z,19.80
2018-06-25T15:20:50.056Z,19.90
2018-06-25T15:23:19.052Z,19.70
2018-06-25T15:25:47.880Z,19.90
2018-06-25T15:28:16.634Z,20.10
2018-06-25T15:30:45.521Z,20.10
2018-06-25T15:33:17.845Z,20.00
2018-06-25T15:35:46.690Z,20.10
2018-06-25T15:38:15.864Z,20.20
2018-06-25T15:40:44.719Z,20.20
2018-06-25T15:43:13.467Z,20.30
2018-06-25T15:45:42.298Z,19.00
2018-06-25T15:48:11.748Z,19.90
2018-06-25T15:50:40.627Z,17.90
2018-06-25T15:53:16.954Z,19.60
2018-06-25T15:55:54.499Z,19.40
2018-06-25T15:58:23.603Z,19.40
2018-06-25T16:00:52.451Z,19.40
2018-06-25T16:03:21.242Z,19.40
2018-06-25T16:05:49.936Z,19.40
2018-06-25T16:08:18.679Z,19.30
2018-06-25T16:10:47.751Z,19.30
2018-06-25T16:13:16.494Z,19.30
2018-06-25T16:15:51.238Z,19.20
2018-06-25T16:18:26.370Z,19.20
2018-06-25T16:21:00.627Z,19.20
2018-06-25T16:23:29.473Z,17.90
2018-06-25T16:25:58.239Z,19.40
2018-06-25T16:28:26.991Z,19.40
2018-06-25T16:30:56.159Z,19.50
2018-06-25T16:33:24.847Z,19.50
2018-06-25T16:35:53.837Z,19.60
2018-06-25T16:38:22.710Z,19.70
2018-06-25T16:40:52.021Z,19.60
2018-06-25T16:43:20.818Z,19.80
2018-06-25T16:45:50.133Z,19.80
2018-06-25T16:48:18.848Z,19.70
2018-06-25T16:50:47.555Z,19.70
2018-06-25T16:53:16.424Z,19.60
2018-06-25T16:55:45.103Z,19.60
2018-06-25T16:58:14.674Z,19.60
2018-06-25T17:03:12.696Z,19.70
2018-06-25T17:05:41.455Z,19.70
2018-06-25T17:08:10.114Z,19.70
2018-06-25T17:10:39.160Z,19.70
2018-06-25T17:13:08.591Z,19.60
2018-06-25T17:15:37.416Z,17.80
2018-06-25T17:18:06.391Z,19.60
2018-06-25T17:20:35.246Z,19.50
2018-06-25T17:23:04.178Z,19.50
2018-06-25T17:25:33.539Z,19.30
2018-06-25T17:28:02.589Z,17.70
2018-06-25T17:30:31.541Z,19.20
2018-06-25T17:33:00.521Z,19.30
2018-06-25T17:35:29.320Z,19.30
2018-06-25T17:37:58.169Z,17.90
2018-06-25T17:40:27.059Z,19.30
2018-06-25T17:42:55.933Z,19.20
2018-06-25T17:45:24.761Z,19.00
2018-06-25T17:47:53.827Z,19.00
2018-06-25T17:50:22.773Z,19.00
2018-06-25T17:52:51.757Z,19.00
2018-06-25T17:55:20.547Z,18.90
2018-06-25T17:57:49.600Z,18.80
2018-06-25T18:00:19.134Z,18.70
2018-06-25T18:02:48.117Z,18.70
2018-06-25T18:05:17.031Z,18.60
2018-06-25T18:07:45.917Z,18.60
2018-06-25T18:10:14.820Z,18.70
2018-06-25T18:12:43.799Z,18.70
2018-06-25T18:15:12.715Z,18.80
2018-06-25T18:20:11.140Z,19.10
2018-06-25T18:22:39.891Z,18.80
2018-06-25T18:25:08.615Z,18.70
2018-06-25T18:30:07.459Z,18.60
2018-06-25T18:32:36.299Z,17.00
2018-06-25T18:37:33.885Z,18.40
2018-06-25T18:42:31.398Z,18.60
2018-06-25T18:45:00.271Z,18.20
2018-06-25T18:47:29.063Z,18.20
2018-06-25T18:49:58.555Z,18.20
2018-06-25T18:54:55.946Z,17.50
2018-06-25T18:57:24.830Z,18.20
2018-06-25T18:59:53.630Z,18.10
2018-06-25T19:02:22.526Z,18.10
2018-06-25T19:04:51.395Z,18.00
2018-06-25T19:09:48.728Z,16.80
2018-06-25T19:12:17.693Z,19.70
2018-06-25T19:14:46.548Z,17.90
2018-06-25T19:17:15.519Z,17.80
2018-06-25T19:19:44.205Z,17.80
2018-06-25T19:22:13.940Z,17.80
2018-06-25T19:24:42.880Z,17.80
2018-06-25T19:27:12.103Z,17.80
2018-06-25T19:29:41.064Z,16.40
2018-06-25T19:32:09.946Z,17.80
2018-06-25T19:34:45.391Z,17.70
2018-06-25T19:37:33.052Z,17.60
2018-06-25T19:40:01.902Z,17.60
2018-06-25T19:42:32.315Z,17.70
2018-06-25T19:45:01.437Z,17.70
2018-06-25T19:49:58.825Z,17.60
2018-06-25T19:52:30.457Z,17.60
2018-06-25T19:55:01.747Z,17.60
2018-06-25T19:57:36.514Z,17.60
2018-06-25T20:00:10.251Z,17.60
2018-06-25T20:05:10.581Z,17.00
2018-06-25T20:07:42.999Z,17.30
2018-06-25T20:10:12.576Z,17.50
2018-06-25T20:12:42.837Z,19.30
2018-06-25T20:15:11.659Z,17.50
2018-06-25T20:17:40.909Z,17.40
2018-06-25T20:20:09.992Z,17.40
2018-06-25T20:22:40.150Z,17.40
2018-06-25T20:25:09.660Z,17.50
2018-06-25T20:27:38.464Z,17.50
2018-06-25T20:30:07.665Z,17.50
2018-06-25T20:32:36.662Z,17.50
2018-06-25T20:36:35.346Z,17.50
2018-06-25T20:39:08.480Z,17.50
2018-06-25T20:41:37.153Z,17.50
2018-06-25T20:44:07.875Z,17.40
2018-06-25T20:46:36.655Z,16.20
2018-06-25T20:49:05.600Z,17.40
2018-06-25T20:51:35.280Z,17.50
2018-06-25T20:54:04.194Z,17.50
2018-06-25T20:56:33.175Z,17.40
2018-06-25T20:59:02.216Z,17.40
2018-06-25T21:01:30.926Z,17.40
2018-06-25T21:04:00.637Z,17.40
2018-06-25T21:06:29.447Z,17.30
2018-06-25T21:08:58.342Z,17.40
2018-06-25T21:11:27.013Z,17.40
2018-06-25T21:13:55.829Z,17.40
2018-06-25T21:16:24.513Z,16.70
2018-06-25T21:18:53.336Z,17.10
2018-06-25T21:21:22.118Z,17.00
2018-06-25T21:23:51.034Z,17.10
2018-06-25T21:26:19.975Z,17.00
2018-06-25T21:28:48.694Z,17.10
2018-06-25T21:31:17.422Z,17.00
2018-06-25T21:33:46.286Z,16.90
2018-06-25T21:36:15.224Z,17.00
2018-06-25T21:38:44.014Z,17.00
2018-06-25T21:41:12.657Z,17.00
2018-06-25T21:43:41.364Z,16.90
2018-06-25T21:46:10.627Z,16.90
2018-06-25T21:48:39.331Z,16.80
2018-06-25T21:51:08.096Z,16.80
2018-06-25T21:53:36.955Z,16.80
2018-06-25T21:56:05.842Z,16.80
2018-06-25T21:58:34.837Z,16.80
2018-06-25T22:01:04.958Z,16.80
2018-06-25T22:03:33.690Z,16.70
2018-06-25T22:06:02.419Z,16.70
2018-06-25T22:08:31.119Z,16.70
2018-06-25T22:10:59.830Z,16.70
2018-06-25T22:13:28.686Z,16.70
2018-06-25T22:15:57.635Z,16.60
2018-06-25T22:18:26.399Z,16.60
2018-06-25T22:20:55.081Z,16.60
2018-06-25T22:23:23.894Z,16.60
2018-06-25T22:25:52.787Z,16.60
2018-06-25T22:28:21.652Z,16.10
2018-06-25T22:30:50.373Z,16.70
2018-06-25T22:33:19.017Z,16.70
2018-06-25T22:35:47.680Z,16.70
2018-06-25T22:38:16.514Z,16.70
2018-06-25T22:40:45.280Z,16.60
2018-06-25T22:43:13.967Z,16.50
2018-06-25T22:45:42.787Z,16.40
2018-06-25T22:48:11.607Z,16.40
2018-06-25T22:50:40.345Z,16.30
2018-06-25T22:53:09.091Z,16.30
2018-06-25T22:55:37.841Z,16.20
2018-06-25T22:58:06.616Z,15.90
2018-06-25T23:00:35.467Z,16.00
2018-06-25T23:03:04.270Z,16.10
2018-06-25T23:05:33.890Z,16.20
2018-06-25T23:08:02.604Z,16.30
2018-06-25T23:10:31.346Z,16.30
2018-06-25T23:13:00.079Z,16.40
2018-06-25T23:15:28.858Z,16.30
2018-06-25T23:17:57.609Z,16.30
2018-06-25T23:20:26.307Z,16.30
2018-06-25T23:22:56.926Z,16.20
2018-06-25T23:25:26.287Z,15.90
2018-06-25T23:27:55.068Z,15.80
2018-06-25T23:30:23.885Z,15.80
2018-06-25T23:32:52.673Z,15.80
2018-06-25T23:35:21.309Z,15.70
2018-06-25T23:37:50.233Z,15.70
2018-06-25T23:40:19.076Z,15.90
2018-06-25T23:42:47.870Z,16.10
2018-06-25T23:45:16.600Z,16.30
2018-06-25T23:47:45.349Z,14.90
2018-06-25T23:50:14.418Z,16.30
2018-06-25T23:52:43.112Z,16.20
2018-06-25T23:55:11.887Z,16.10
2018-06-25T23:57:40.527Z,16.10
